My Meet Scores
Amanda Mohler, United Gymnastics Academy - MyMeetScores.com
Top100 | Top Teams | Upcoming Meets | Completed Meets | Latest | Add Scores | Help| Support | Bookmark and Share

Amanda Mohler, United Gymnastics Academy
Personal Bests
LevelVault BarsBeamFloorAA
68.3009.525 9.1009.50036.425
88.4509.275 8.7509.47535.950
98.9509.275 9.1508.67534.550
109.3259.525 9.6509.55037.400
OP9.3009.150 9.5259.37537.350
7s68.5509.200 9.6259.45036.825
10/O8.9008.800 8.5509.10035.350
Scores on America's Top 100as of 10.21.2018
Year Level Vault Bars Beam Floor AA
2009 109.650
2010 109.650
Meet Scores
Date Meet Team Session Level Division Vault Bars Beam Floor AA
2012-05-11 2012 Womens JO National Championships United Gymnastics Academy 4SR 10 Senior D 8.950 41 9.525 8 9.150 27 9.350 41 36.975 28
2012-04-13 2012 Region 5 Level 9, 10 Championships United Gymnastics Academy 2SD 10 Senior D 9.025 21T 9.025 18 9.525 2 9.325 8T 36.900 7
2012-03-23 2012 Illinois Level 8, 9, 10 State Meet United Gymnastics Academy 9 10 Sr.B 9.125 16 7.900 17 9.625 2 8.600 16 35.250 14
2012-03-09 LGA Lucky Invite United Gymnastics Academy B3 10 Lvl 10: 17 & up 0.000 7 9.450 2 9.575 3 0.000 8 19.025 8
2012-02-24 2012 Gasparilla Classic United Gymnastics Academy Multiple Sessions Combined 10 B6 L10 gr4 0.000 11T 9.375 4 0.000 11T 0.000 11T 9.375 11
2012-02-17 13th Annual GymQuarters Invitational United Gymnastics Academy 7 10 Senior 0.000 14T 9.475 1 0.000 16 0.000 13T 9.475 16
2012-01-28 2012 UGA Cowgirl Classic United Gymnastics Academy 10 Lvl 10: 16 & up 9.100 12 9.425 6 9.400 2 9.425 3 37.350 3
2012-01-18 Bravo Classic United Gymnastics Academy 5A 10 Sr 8.975 9 9.000 5 9.625 1 9.475 2 37.075 2
2012-01-06 Twistars Invitational 2012 A Royal Bash United Gymnastics Academy 10B 10 Level 10: 17 & up 9.150 6 9.000 8 9.450 1 9.325 4 36.925 3
2011-04-17 2011 Region 5 Level 9 - 10 Championships United Gymnastics Academy 10 Senior B 9.125 20 7.850 19 9.275 5 9.500 4 35.750 16
2011-03-25 2011 Illinois Level 6-9-10 State Meet United Gymnastics Academy 8 10 Sr.A 9.150 9 9.300 5 9.475 2 9.450 6 37.375 5
2011-03-04 Tim Rand Invitational United Gymnastics Academy Multiple Sessions Combined OP L10 S8grp3 9.300 7 9.150 5 9.525 1 9.375 2T 37.350 1
2011-02-19 12th Annual GymQuarters Invitational United Gymnastics Academy 5A 10 Senior 9.175 4 8.200 7 9.450 1 9.075 4 35.900 3
2011-01-28 UGA Classic United Gymnastics Academy 5 10 Lvl 10: 16 & up 9.250 10 9.450 5 8.900 8 9.550 4T 37.150 5
2011-01-21 Bravo Classic United Gymnastics Academy 6A 10 17+ 9.000 9 9.450 1 9.525 1 9.425 4 37.400 1
2011-01-07 Twistars Invitational / Flip for the Red White & Blue United Gymnastics Academy 10B 10 16 9.000 12 6.000 15 9.400 2 8.450 12 32.850 13
2010-05-09 2010 Junior Olympic National Invitational Tournament United Gymnastics Academy 2B 10 Junior D 8.950 15 8.625 15T 9.225 5T 9.300 14T 36.100 8
2010-04-08 2010 Region 5 Level 9, 10 Championships United Gymnastics Academy 2A 10 Junior D 8.925 18 8.825 10 8.850 11 9.100 8 35.700 10
2010-03-19 2010 Illinois Level 8, 9, 10 State Championships United Gymnastics Academy 8 10 Sr.A 9.325 13 8.650 14 9.650 1 9.425 10 37.050 9
2010-03-05 Arena Classic United Gymnastics Academy 10 Jr.B 9.225 11 8.125 12 9.425 4 9.275 6 36.050 9
2010-02-12 11th Annual GymQuarters Invitational United Gymnastics Academy 7 10 Junior 0.000 22 8.300 20 8.400 12 0.000 22 16.700 22
2010-02-05 St. Valentines Classic United Gymnastics Academy 3A 10 16_and_up 9.050 4 8.100 6 9.075 1 9.175 3 35.400 4
2010-01-22 Sand Dollar/ Whitlow Invitational United Gymnastics Academy 5 10 Jr B 9.100 3 8.750 6 8.100 7 8.150 9 34.100 6
2010-01-08 Twistars 2010 Rock the House Invitational United Gymnastics Academy 10B 10/O 15 8.900 4 8.800 4 8.550 6 9.100 2 35.350 3
2009-04-17 2009 Region 5 Level 9 and 10 Championships United Gymnastics Academy 2 10 Jr.B 8.875 19 7.400 24 9.225 4 8.475 21 33.975 21
2009-03-13 Arena Classic United Gymnastics Academy 6 10 Lvl10:JuniorA 0.000 23 7.000 23 9.650 2 0.000 22 16.650 22
2009-02-27 2009 Gasparilla Classic United Gymnastics Academy Multiple Sessions Combined 10 B5 10 grp1 0.000 9T 8.050 10 9.125 3 0.000 7T 17.175 9
2009-02-13 GymQuarters Invitational United Gymnastics Academy 6 10 Jr A 0.000 12T 8.900 6 9.250 3 0.000 13 18.150 13
2009-01-23 2009 Bravo Classic United Gymnastics Academy 7A 10 Jr 9.050 16 8.300 17 8.700 14 8.900 13 34.950 14
2009-01-09 Twistars Invitational 2009 Midnight Madness United Gymnastics Academy 10a 10 14_and_under 9.000 2 4.400 4 9.150 2 8.425 3 30.975 4
2008-05-08 Level 9 Eastern Championships 2008 United Gymnastics Academy 3 9 Junior C 8.250 47 9.275 9 8.925 28 0.000 47 26.450 47
2008-02-15 2008 Arizona Sunrays Hardrock Invitational United Gymnastics Academy B5 9 Jr 8.250 25T 9.000 11T 8.625 22 8.675 23T 34.550 17
2008-02-08 IGI Chicago Style Gymnastics Meet 2008 United Gymnastics Academy 533 9 14 - 15 Yr 8.100 14 0.000 17T 0.000 17T 0.000 17T 8.100 17
2008-01-25 2008 Bravo Classic United Gymnastics Academy 7A 9 JrB 8.950 8 7.525 7 9.150 5 8.500 10 34.125 7
2008-01-25 2008 Bravo Classic United Gymnastics Academy 9A 9 JrB 8.950 8 7.525 7 9.150 5 8.500 10 34.125 7
2007-02-10 For Love or Money 2007 Gym Kinetics Gymnastics MoneyGym 8 13 8.450 23 9.275 4 8.750 17 9.475 1 35.950 10
2006-01-27 Go For It Classic Gym Kinetics Sports Complex ALL 7s6 Jr A 8.550 5 9.200 4 9.625 3 9.450 2 36.825 4
2005-01-07 Bravo Classic 05 Gym Kinetics Sports Complex 1B 6 10 year 8.300 16 9.525 1 9.100 1 9.500 1 36.425 1

www.lazysuits.com